Terminal Aerodrome Forecast
Issued by NWS Raleigh/Durham, NC

Home | Current Version | Previous Version | Text Only | Print | Product List | Glossary On
Versions: 1 2 3 4 5 6 7 8 9 10 11 12 13 14 15 16 17 18 19 20 21 22 23 24 25 26 27 28 29 30 31 32 33 34 35 36 37 38 39 40 41 42 43 44 45 46 47 48 49 50
000
FTUS42 KRAH 292207 AAA
TAFFAY
TAF AMD
KFAY 292207Z 2922/3018 11007KT P6SM SCT006 BKN015
      TEMPO 2922/3002 SCT015 BKN110
     FM300200 13006KT P6SM BKN025
     FM300500 12006KT P6SM SCT007 BKN250
     FM300800 13005KT 3SM BR BKN005 BKN250
      TEMPO 3008/3012 2SM BR OVC002
     FM301300 13004KT P6SM SCT025 BKN250=

USA.gov is the U.S. government's official web portal to all federal, state and local government web resources and services.